Latest Weather Observations for Maroochydore

IDQ60901

Issued at 6:05 pm EST Friday 21 November 2014 (issued every 10 minutes, with the page automatically refreshed every 10 minutes)

About weather observations | Map of Brisbane area stations | Latest observations for Brisbane area | Other Formats
Station Details ID: 040861 Name: SUNSHINE COAST AIRPORT Lat: -26.60 Lon: 153.09 Height: 3.3 m
Data from the previous 72 hours. | See also: Recent months at Maroochydore
Date/Time
EST
Tmp

°C
App
Tmp
°C
Dew
Point
°C
Rel
Hum
%
Delta-T

°C
Wind Press
QNH
hPa
Press
MSL
hPa
Rain
since
9 am
mm
Dir
 
Spd
km/h
Gust
km/h
Spd
kts
Gust
kts
21/06:00pm 25.1 23.9 22.2 84 1.9 N 32 46 17 25 1012.1 1012.1 0.0
21/05:47pm 25.3 23.9 22.0 82 2.2 N 32 50 17 27 1012.0 - 0.0
21/05:30pm 25.5 24.1 22.2 82 2.2 N 33 44 18 24 1011.9 - 0.0
21/05:00pm 26.0 24.6 22.3 80 2.5 N 33 43 18 23 1011.7 - 0.0
21/04:30pm 26.6 25.1 22.0 76 3.1 N 33 44 18 24 1011.4 - 0.0
21/04:00pm 27.2 25.5 22.4 75 3.2 NNE 35 43 19 23 1011.4 - 0.0
21/03:30pm 27.3 25.5 22.3 74 3.4 N 35 46 19 25 1011.6 - 0.0
21/03:00pm 28.1 26.3 22.3 70 3.9 NNE 35 46 19 25 1011.7 1011.7 0.0
21/02:30pm 28.0 26.0 21.8 69 4.2 NNE 35 46 19 25 1012.0 - 0.0
21/02:00pm 28.2 26.3 22.0 69 4.2 NNE 35 44 19 24 1012.4 - 0.0
21/01:30pm 28.7 26.6 21.7 66 4.7 NNE 35 44 19 24 1012.8 - 0.0
21/01:00pm 28.8 27.4 23.0 71 4.0 NNE 35 44 19 24 1013.4 - 0.0
21/12:30pm 28.8 27.8 23.0 71 4.0 NNE 33 44 18 24 1013.8 - 0.0
21/12:00pm 28.2 26.8 22.2 70 4.0 NNE 33 43 18 23 1014.2 1014.2 0.0
21/11:30am 28.2 27.1 22.4 71 3.9 NNE 32 41 17 22 1014.7 - 0.0
21/11:00am 28.7 27.5 22.7 70 4.1 NNE 33 41 18 22 1015.1 - 0.0
21/10:30am 28.3 27.4 22.1 69 4.2 NNE 30 37 16 20 1015.4 - 0.0
21/10:00am 28.3 28.8 23.9 77 3.0 N 28 35 15 19 1015.7 - 0.0
21/09:30am 27.7 27.3 22.4 73 3.6 NNE 28 35 15 19 1015.9 - 0.0
21/09:00am 27.9 27.9 22.4 72 3.7 NNE 26 32 14 17 1016.2 1016.2 0.0
21/08:30am 27.1 28.4 23.3 80 2.6 NNE 22 32 12 17 1016.2 - 0.0
21/08:00am 25.5 26.5 21.0 76 3.0 N 17 24 9 13 1016.4 - 0.0
21/07:30am 24.3 25.5 21.4 84 1.9 N 17 26 9 14 1016.6 - 0.0
21/07:00am 24.8 26.1 21.7 83 2.1 NNW 17 26 9 14 1016.6 - 0.0
21/06:30am 24.2 26.1 22.1 88 1.4 NNW 15 20 8 11 1016.1 - 0.0
21/06:00am 23.1 25.3 21.9 93 0.8 N 13 20 7 11 1015.9 1015.9 0.0
21/05:30am 22.2 24.8 21.2 94 0.7 N 9 11 5 6 1015.7 - 0.0
21/05:00am 22.0 24.5 21.0 94 0.7 NNW 9 13 5 7 1015.5 - 0.0
21/04:30am 21.8 24.1 20.6 93 0.8 NNW 9 13 5 7 1015.2 - 0.0
21/04:00am 21.6 25.1 20.4 93 0.8 NNW 2 9 1 5 1015.1 - 0.0
21/03:30am 21.7 23.9 20.3 92 0.9 NW 9 13 5 7 1014.9 - 0.0
21/03:00am 21.7 23.9 20.3 92 0.9 NW 9 11 5 6 1014.9 1014.9 0.0
21/02:30am 22.0 24.2 20.5 91 1.0 NNW 9 13 5 7 1015.0 - 0.0
21/02:00am 22.4 24.0 20.7 90 1.1 NNW 13 17 7 9 1014.9 - 0.0
21/01:30am 22.8 23.8 21.1 90 1.1 N 17 24 9 13 1014.9 - 0.0
21/01:00am 22.3 24.3 20.8 91 1.0 NNW 11 13 6 7 1015.5 - 0.0
21/12:30am 22.4 24.8 20.9 91 1.0 NNW 9 13 5 7 1015.7 - 0.0
21/12:16am 22.7 24.9 21.2 91 1.0 NNW 11 15 6 8 1016.0 - 0.0
21/12:00am 22.9 25.2 21.4 91 1.0 NNW 11 15 6 8 1016.1 1016.1 0.0
 
Date/Time
EST
Tmp

°C
App
Tmp
°C
Dew
Point
°C
Rel
Hum
%
Delta-T

°C
Wind Press
QNH
hPa
Press
MSL
hPa
Rain
since
9 am
mm
Dir
 
Spd
km/h
Gust
km/h
Spd
kts
Gust
kts
20/11:33pm 23.0 24.9 21.3 90 1.1 N 13 17 7 9 1016.3 - 0.0
20/11:30pm 23.1 25.1 21.5 91 1.1 N 13 19 7 10 1016.3 - 0.0
20/11:00pm 23.3 25.3 21.6 90 1.1 N 13 20 7 11 1016.6 - 0.0
20/10:56pm 23.3 25.3 21.6 90 1.1 N 13 20 7 11 1016.6 - 0.0
20/10:36pm 23.4 24.7 21.7 90 1.1 N 17 24 9 13 1016.7 - 0.0
20/10:30pm 23.4 25.1 21.7 90 1.1 N 15 24 8 13 1016.8 - 0.0
20/10:00pm 24.0 26.0 21.5 86 1.7 N 13 19 7 10 1017.1 - 0.0
20/09:46pm 24.0 25.2 21.5 86 1.7 N 17 24 9 13 1017.1 - 0.0
20/09:30pm 23.9 24.7 21.4 86 1.6 N 19 24 10 13 1017.0 - 0.0
20/09:00pm 23.8 24.4 21.3 86 1.6 N 20 26 11 14 1016.9 1016.9 0.0
20/08:46pm 23.8 24.3 21.1 85 1.8 N 20 28 11 15 1016.8 - 0.0
20/08:30pm 23.9 25.7 21.2 85 1.8 N 13 19 7 10 1016.8 - 0.0
20/08:06pm 24.0 24.8 21.3 85 1.8 N 19 24 10 13 1016.6 - 0.0
20/08:00pm 24.0 24.5 21.1 84 1.9 N 20 28 11 15 1016.6 - 0.0
20/07:30pm 24.0 24.9 21.5 86 1.7 N 19 24 10 13 1016.2 - 0.0
20/07:00pm 24.0 23.8 21.3 85 1.8 N 24 30 13 16 1015.7 - 0.0
20/06:30pm 24.3 24.3 21.6 85 1.8 N 24 32 13 17 1015.5 - 0.0
20/06:00pm 24.3 24.5 21.4 84 1.9 N 22 28 12 15 1015.4 1015.4 0.0
20/05:30pm 24.7 24.3 21.0 80 2.4 N 24 35 13 19 1015.2 - 0.0
20/05:00pm 25.3 24.9 21.0 77 2.8 NNE 24 33 13 18 1014.9 - 0.0
20/04:30pm 25.8 24.7 21.0 75 3.2 NNE 28 35 15 19 1014.7 - 0.0
20/04:00pm 27.0 26.1 21.5 72 3.7 NNE 28 37 15 20 1014.7 - 0.0
20/03:30pm 27.3 26.3 21.3 69 4.0 NNE 28 35 15 19 1014.8 - 0.0
20/03:00pm 27.7 26.9 21.7 70 4.0 NNE 28 33 15 18 1015.1 1015.1 0.0
20/02:30pm 28.0 27.1 21.5 67 4.3 NNE 28 35 15 19 1015.0 - 0.0
20/02:00pm 27.0 26.2 21.7 73 3.5 NNE 28 33 15 18 1015.6 - 0.0
20/01:30pm 28.5 29.7 22.5 70 4.1 NE 20 26 11 14 1015.9 - 0.0
20/01:00pm 27.9 28.7 21.4 67 4.3 ENE 19 22 10 12 1016.3 - 0.0
20/12:30pm 27.4 28.2 21.4 70 4.0 ENE 19 22 10 12 1016.6 - 0.0
20/12:00pm 26.3 26.6 20.4 70 3.9 E 19 22 10 12 1017.0 1017.0 0.0
20/11:30am 26.3 26.9 20.2 69 4.0 E 17 22 9 12 1017.5 - 0.0
20/11:00am 26.3 26.7 19.9 68 4.2 E 17 22 9 12 1017.9 - 0.0
20/10:30am 25.7 26.2 19.3 67 4.1 E 15 19 8 10 1018.3 - 0.0
20/10:00am 25.0 25.7 18.9 69 3.9 E 13 17 7 9 1018.6 - 0.0
20/09:30am 25.7 27.2 19.8 70 3.8 E 11 13 6 7 1018.7 - 0.0
20/09:00am 25.2 27.8 20.0 73 3.4 ENE 6 13 3 7 1018.5 1018.5 7.8
20/08:30am 24.6 27.3 19.4 73 3.3 SE 4 7 2 4 1018.6 - 7.8
20/08:00am 23.1 25.3 19.3 79 2.4 WSW 6 9 3 5 1018.7 - 7.8
20/07:30am 22.3 23.7 18.7 80 2.3 WSW 9 11 5 6 1018.6 - 7.8
20/07:00am 21.8 24.6 18.8 83 1.9 WSW 2 9 1 5 1018.3 - 7.8
20/06:30am 20.8 23.9 18.7 88 1.3 CALM 0 0 0 0 1018.1 - 7.8
20/06:00am 20.2 23.1 19.0 93 0.8 SSE 2 7 1 4 1017.8 1017.8 7.8
20/05:30am 18.4 21.0 17.4 94 0.6 CALM 0 0 0 0 1017.5 - 7.8
20/05:00am 17.2 19.3 16.2 94 0.6 CALM 0 2 0 1 1017.1 - 7.8
20/04:30am 16.8 18.7 15.7 93 0.6 CALM 0 0 0 0 1016.7 - 7.6
20/04:00am 17.0 18.2 15.9 93 0.6 W 4 9 2 5 1016.2 - 7.6
20/03:30am 17.2 17.9 16.1 93 0.7 WNW 7 7 4 4 1015.8 - 7.6
20/03:00am 17.5 18.8 16.2 92 0.8 NW 4 7 2 4 1015.7 1015.7 7.6
20/02:30am 17.5 18.2 16.2 92 0.8 N 7 9 4 5 1015.7 - 7.6
20/02:00am 17.7 18.4 16.2 91 0.9 N 7 11 4 6 1015.7 - 7.6
20/01:30am 18.4 20.5 17.1 92 0.8 N 2 6 1 3 1015.9 - 7.6
20/01:00am 18.5 19.6 17.2 92 0.8 N 7 9 4 5 1016.3 - 7.6
20/12:30am 18.8 19.7 17.6 93 0.7 N 9 11 5 6 1016.7 - 7.6
20/12:00am 19.2 20.6 17.9 92 0.8 NW 7 9 4 5 1017.1 1017.1 7.6
 
Date/Time
EST
Tmp

°C
App
Tmp
°C
Dew
Point
°C
Rel
Hum
%
Delta-T

°C
Wind Press
QNH
hPa
Press
MSL
hPa
Rain
since
9 am
mm
Dir
 
Spd
km/h
Gust
km/h
Spd
kts
Gust
kts
19/11:30pm 19.5 20.7 18.3 93 0.7 WNW 9 15 5 8 1017.8 - 7.6
19/11:00pm 19.5 20.7 18.2 92 0.8 NW 9 11 5 6 1018.2 - 7.6
19/10:30pm 19.7 21.3 18.2 91 0.9 WNW 7 9 4 5 1018.5 - 7.6
19/10:00pm 19.9 21.1 18.2 90 1.1 WNW 9 13 5 7 1018.0 - 7.6
19/09:30pm 20.6 19.9 18.7 89 1.2 N 20 26 11 14 1018.1 - 7.6
19/09:00pm 20.6 18.3 18.4 87 1.4 NNE 28 39 15 21 1018.2 1018.2 7.4
19/08:30pm 20.5 19.9 18.4 88 1.3 N 19 24 10 13 1017.8 - 6.6
19/08:00pm 20.6 19.5 18.7 89 1.2 N 22 28 12 15 1017.9 - 5.8
19/07:57pm 20.6 19.8 18.5 88 1.3 N 20 24 11 13 1018.3 - 5.6
19/07:35pm 21.1 22.4 19.2 89 1.2 SSW 11 20 6 11 1018.5 - 4.2
19/07:30pm 21.3 21.5 19.4 89 1.2 S 17 26 9 14 1018.3 - 3.4
19/07:00pm 20.5 21.2 18.8 90 1.1 NW 13 19 7 10 1016.5 - 3.0
19/06:30pm 20.9 22.0 18.8 88 1.3 W 11 17 6 9 1016.2 - 3.0
19/06:00pm 20.7 18.5 18.8 89 1.2 N 28 39 15 21 1014.8 1014.8 2.8
19/05:59pm 20.8 18.7 18.9 89 1.2 N 28 39 15 21 1014.7 - 2.8
19/05:47pm 21.6 21.1 19.9 90 1.1 NW 22 32 12 17 1015.6 - 2.2
19/05:35pm 22.0 22.5 20.1 89 1.2 NNW 17 20 9 11 1015.4 - 1.4
19/05:30pm 22.0 22.3 19.7 87 1.5 NW 17 20 9 11 1015.1 - 1.4
19/05:22pm 22.6 22.7 20.3 87 1.5 N 20 28 11 15 1015.1 - 1.2
19/05:17pm 23.2 24.1 20.9 87 1.5 N 17 22 9 12 1014.9 - 0.8
19/05:00pm 24.0 24.4 20.9 83 2.0 N 20 26 11 14 1014.0 - 0.2
19/04:30pm 24.4 24.2 22.1 87 1.5 NNE 26 35 14 19 1013.9 - 0.0
19/04:00pm 24.9 24.4 22.2 85 1.8 NNE 28 35 15 19 1014.0 - 0.0
19/03:30pm 25.1 25.4 22.2 84 1.9 NNE 24 32 13 17 1013.9 - 0.0
19/03:06pm 25.9 26.5 22.8 83 2.1 NNE 24 32 13 17 1014.2 - 0.0
19/03:00pm 25.6 25.8 22.1 81 2.3 NNE 24 30 13 16 1014.3 1014.3 0.0
19/02:45pm 27.0 27.5 22.6 77 3.0 NNE 24 32 13 17 1014.3 - 0.0
19/02:41pm 26.8 27.8 22.8 79 2.7 NNE 22 32 12 17 1014.3 - 0.0
19/02:30pm 26.2 27.0 22.5 80 2.5 NNE 22 28 12 15 1014.7 - 0.0
19/02:04pm 25.7 27.0 22.6 83 2.1 NE 20 24 11 13 1015.0 - 0.0
19/02:00pm 25.6 26.7 22.3 82 2.2 NE 20 28 11 15 1015.1 - 0.0
19/01:30pm 26.5 26.7 22.1 77 3.0 NNE 24 28 13 15 1015.5 - 0.0
19/01:00pm 26.4 26.9 22.0 77 2.9 NE 22 30 12 16 1016.0 - 0.0
19/12:30pm 26.1 26.5 22.4 80 2.5 NE 24 30 13 16 1016.4 - 0.0
19/12:00pm 26.5 27.9 22.6 79 2.6 NE 19 24 10 13 1016.6 1016.6 0.0
19/11:30am 26.7 28.1 22.8 79 2.6 NNE 20 24 11 13 1016.7 - 0.0
19/11:00am 26.3 27.5 22.2 78 2.8 NNE 19 22 10 12 1017.1 - 0.0
19/10:30am 26.1 27.8 22.4 80 2.5 NNE 17 19 9 10 1017.3 - 0.0
19/10:00am 25.4 27.0 21.5 79 2.6 NNE 15 19 8 10 1017.6 - 0.0
19/09:30am 25.1 26.9 21.8 82 2.2 NNE 15 19 8 10 1017.8 - 0.0
19/09:00am 24.7 25.5 21.4 82 2.2 NNE 19 22 10 12 1017.7 1017.7 5.0
19/08:30am 25.4 27.8 22.3 83 2.1 NNW 13 19 7 10 1017.7 - 5.0
19/08:00am 25.4 27.8 22.3 83 2.1 NNW 13 19 7 10 1017.6 - 5.0
19/07:30am 24.9 27.3 22.2 85 1.8 NNW 13 19 7 10 1017.3 - 5.0
19/07:00am 23.4 28.0 21.8 91 1.1 CALM 0 0 0 0 1017.2 - 5.0
19/06:30am 22.5 26.9 21.3 93 0.8 CALM 0 6 0 3 1016.7 - 5.0
19/06:00am 22.1 26.4 21.1 94 0.7 CALM 0 6 0 3 1016.3 1016.3 5.0
19/05:30am 21.5 23.7 20.5 94 0.6 NW 9 11 5 6 1015.9 - 5.0
19/05:00am 21.0 23.0 20.0 94 0.6 N 9 11 5 6 1015.5 - 5.0
19/04:49am 21.1 23.3 20.3 95 0.5 NNW 9 11 5 6 1015.5 - 5.0
19/04:30am 20.3 21.6 19.3 94 0.6 N 11 11 6 6 1015.4 - 5.0
19/04:00am 20.8 23.7 19.8 94 0.6 WNW 4 6 2 3 1015.3 - 5.0
19/03:53am 20.8 24.4 19.8 94 0.6 CALM 0 2 0 1 1015.3 - 5.0
19/03:43am 21.4 24.2 20.4 94 0.6 WNW 6 7 3 4 1015.1 - 5.0
19/03:30am 20.9 23.4 19.9 94 0.6 N 6 7 3 4 1015.0 - 5.0
19/03:00am 20.6 24.0 19.4 93 0.8 CALM 0 0 0 0 1014.5 1014.5 5.0
19/02:30am 20.9 23.3 19.7 93 0.8 NW 6 6 3 3 1014.5 - 5.0
19/02:00am 21.4 24.1 20.2 93 0.8 NW 6 9 3 5 1014.5 - 5.0
19/01:47am 21.6 24.8 20.4 93 0.8 NW 4 6 2 3 1014.5 - 5.0
19/01:40am 21.7 24.9 20.5 93 0.8 NW 4 6 2 3 1014.6 - 5.0
19/01:30am 21.6 24.2 20.4 93 0.8 NNW 7 7 4 4 1014.5 - 5.0
19/01:00am 21.6 24.2 20.4 93 0.8 N 7 9 4 5 1014.8 - 5.0
19/12:35am 22.0 24.7 20.6 92 0.9 NW 7 7 4 4 1015.2 - 5.0
19/12:30am 22.2 25.5 20.8 92 0.9 NW 4 7 2 4 1015.3 - 5.0
19/12:00am 22.4 25.5 21.0 92 0.9 NW 6 7 3 4 1015.6 1015.6 5.0
 
Date/Time
EST
Tmp

°C
App
Tmp
°C
Dew
Point
°C
Rel
Hum
%
Delta-T

°C
Wind Press
QNH
hPa
Press
MSL
hPa
Rain
since
9 am
mm
Dir
 
Spd
km/h
Gust
km/h
Spd
kts
Gust
kts
18/11:30pm 22.9 26.1 21.7 93 0.8 NNW 7 9 4 5 1016.1 - 5.0
18/11:00pm 23.0 25.9 21.8 93 0.8 NNW 9 11 5 6 1016.1 - 5.0
18/10:34pm 22.8 25.6 21.6 93 0.8 NW 9 13 5 7 1016.1 - 5.0
18/10:30pm 22.7 25.2 21.7 94 0.7 NNW 11 15 6 8 1015.9 - 5.0
18/10:10pm 22.5 25.6 21.5 94 0.7 NNW 7 9 4 5 1016.0 - 5.0
18/10:00pm 22.3 24.8 21.1 93 0.8 NNW 9 13 5 7 1015.9 - 5.0
18/09:30pm 22.0 23.7 21.0 94 0.7 N 13 15 7 8 1015.2 - 5.0
18/09:17pm 21.5 25.0 20.3 93 0.8 NNW 2 13 1 7 1015.3 - 5.0
18/09:00pm 21.3 25.0 19.9 92 0.9 CALM 0 0 0 0 1015.4 1015.4 5.0
18/08:58pm 21.3 25.0 19.9 92 0.9 CALM 0 0 0 0 1015.3 - 5.0
18/08:35pm 22.4 26.6 21.0 92 0.9 CALM 0 0 0 0 1015.4 - 5.0
18/08:30pm 22.4 26.6 21.0 92 0.9 CALM 0 0 0 0 1015.5 - 5.0
18/08:23pm 22.4 26.6 21.0 92 0.9 CALM 0 0 0 0 1015.2 - 5.0
18/08:00pm 22.3 26.5 20.9 92 0.9 CALM 0 0 0 0 1014.9 - 5.0
18/07:30pm 23.0 26.7 21.4 91 1.1 NW 4 6 2 3 1014.7 - 5.0
18/07:00pm 23.4 26.4 22.0 92 0.9 WNW 9 13 5 7 1014.7 - 5.0
18/06:30pm 23.4 26.3 21.8 91 1.1 N 9 15 5 8 1014.3 - 5.0

Latest Capital City Observations: Canberra | Sydney | Melbourne | Brisbane | Adelaide | Perth | Hobart | Darwin

Other Formats:

Comma delimited format used in spreadsheet applications
http://www.bom.gov.au/fwo/IDQ60901/IDQ60901.94569.axf

JavaScript Object Notation format (JSON) in row-major order
http://www.bom.gov.au/fwo/IDQ60901/IDQ60901.94569.json